# Land Stadt Wetter Temperatur Luftdruck Luftfeuchtigkeit Sichtweite Windgeschwindigkeit Windrichtung Ortszeit
1 et Addis Abeba Clouds 15 1024 82 10000 11 270 02.08.2018 14:23
2 tr Alanya Clear 25 1009 47 8000 22 280 02.08.2018 14:22
3 au Alice Springs Clear 2 1024 69 10000 9 139 02.08.2018 14:21
4 ru Amderma Clouds 5 1003 95 0 15 27 02.08.2018 14:23
5 ru Anadyr Clouds 14 1010 62 10000 18 100 02.08.2018 14:23
6 ch Andermatt Clouds 13 1022 52 0 13 50 02.08.2018 14:23
7 ad Andorra la Vella Rain 18 1017 83 0 5 214 02.08.2018 14:22
8 tr Ankara Clouds 23 1011 56 10000 18 30 02.08.2018 14:23
9 mg Antananarivo Clouds 13 1024 93 10000 11 60 02.08.2018 14:21
10 gr Athen Clear 27 1009 41 0 2 23 02.08.2018 14:22
11 ck Avarua Rain 21 1017 94 10000 8 120 02.08.2018 14:22
12 iq Bagdad Clear 36 996 22 10000 4 0 02.08.2018 14:22
13 th Bangkok Rain 26 1006 94 9000 11 249 02.08.2018 14:21
14 es Barcelona Clouds 25 1019 65 10000 8 190 02.08.2018 14:22
15 de Berlin Clouds 18 1026 48 10000 8 360 02.08.2018 14:21
16 ch Bern Clear 19 1022 45 10000 8 60 02.08.2018 14:23
17 fr Bordeaux Clear 27 1020 28 10000 8 20 02.08.2018 14:21
18 de Braunschweig Clear 17 1026 60 0 3 298 02.08.2018 14:21
19 de Bremen Clouds 16 1027 67 10000 15 360 02.08.2018 14:22
20 ar Buenos Aires Clouds 14 1013 26 10000 13 260 02.08.2018 14:22
21 ma Casablanca Clouds 24 1014 78 6000 22 360 02.08.2018 14:23
22 us Chicago Clouds 25 1012 54 16093 22 50 02.08.2018 14:23
23 pe Cusco Clouds 21 1028 19 10000 9 190 02.08.2018 14:23
24 au Darwin Clouds 22 1013 49 10000 13 120 02.08.2018 14:22
25 us Death Valley Clear 39 1006 12 0 11 10 02.08.2018 14:22
26 us Denver Clouds 35 1019 12 16093 17 70 02.08.2018 14:21
27 qa Doha Clear 36 994 50 10000 8 340 02.08.2018 14:23
28 de Dresden Clouds 15 1026 45 10000 8 360 02.08.2018 14:22
29 ae Dubai Clear 39 994 23 10000 9 40 02.08.2018 14:21
30 ie Dublin Clouds 18 1024 68 10000 13 230 02.08.2018 14:21
31 de Emden Clouds 15 1027 75 0 5 306 02.08.2018 14:21
32 ar Esquel Clear 0 1019 91 0 10 276 02.08.2018 14:22
33 us Fairbanks Clouds 16 1006 62 16093 8 120 02.08.2018 14:23
34 de Flensburg Clear 14 1026 77 10000 22 300 02.08.2018 14:21
35 de Frankfurt Clouds 22 1024 33 10000 17 20 02.08.2018 14:22
36 de Freiburg Clouds 21 1022 31 10000 17 360 02.08.2018 14:22
37 gb Glasgow Clouds 16 1022 67 10000 21 200 02.08.2018 14:21
38 de Hamburg Clouds 17 1026 63 10000 11 300 02.08.2018 14:21
39 no Hammerfest Clouds 13 1015 66 10000 22 80 02.08.2018 14:22
40 de Hannover Clear 17 1027 63 10000 9 30 02.08.2018 14:21
41 vn Hanoi Clouds 29 1004 70 9000 8 130 02.08.2018 14:21
42 de Helgoland Clouds 14 1027 71 10000 9 310 02.08.2018 14:22
43 fi Helsinki Clouds 15 1015 82 10000 11 220 02.08.2018 14:21
44 de Hiddensee Clear 15 1028 72 0 30 291 02.08.2018 14:21
45 sb Honiara Clouds 24 1009 94 10000 8 110 02.08.2018 14:22
46 us Honolulu Clouds 27 1018 51 16093 18 60 02.08.2018 14:22
47 at Innsbruck Clouds 18 1024 59 10000 8 40 02.08.2018 14:23
48 tr Istanbul Clear 23 1011 73 10000 15 30 02.08.2018 14:23
49 in Jagatsukh Clear 18 1008 41 0 6 25 02.08.2018 14:22
50 id Jakarta Haze 26 1009 83 5000 8 190 02.08.2018 14:22
51 ru Jakutsk Clouds 20 1006 88 10000 4 30 02.08.2018 14:22
52 af Kabul Clouds 20 1012 68 10000 15 90 02.08.2018 14:21
53 eg Kairo Clear 28 1007 58 10000 21 350 02.08.2018 14:22
54 za Kapstadt Clouds 14 1008 54 10000 37 340 02.08.2018 14:22
55 de Kassel Clouds 17 1026 45 10000 8 40 02.08.2018 14:21
56 ua Kiew Clouds 17 1015 77 10000 25 330 02.08.2018 14:21
57 cd Kisangani Clouds 24 1011 87 0 3 55 02.08.2018 14:23
58 de Köln Clouds 21 1025 52 10000 8 360 02.08.2018 14:21
59 bo La Paz Clouds 16 1036 12 10000 13 270 02.08.2018 14:22
60 es Las Palmas de Gran Canaria Clouds 24 1015 69 10000 44 20 02.08.2018 14:21
61 us Las Vegas Clouds 43 1012 11 16093 21 240 02.08.2018 14:21
62 cn Lhasa Rain 14 1009 62 0 3 110 02.08.2018 14:22
63 pt Lissabon Clear 27 1015 51 10000 17 310 02.08.2018 14:22
64 gb London Clouds 20 1026 46 10000 13 180 02.08.2018 14:22
65 us Los Angeles Clear 31 1012 40 16093 13 214 02.08.2018 14:22
66 es Madrid Clouds 27 1019 44 10000 17 80 02.08.2018 14:23
67 de Magdeburg Clouds 17 1026 51 0 2 14 02.08.2018 14:22
68 it Mailand Clear 25 1019 50 10000 13 100 02.08.2018 14:21
69 mv Male Clouds 29 1009 83 10000 5 40 02.08.2018 14:23
70 br Manaus Clouds 32 1010 62 10000 8 80 02.08.2018 14:21
71 gb Manchester Clouds 18 1026 55 10000 9 290 02.08.2018 14:21
72 ph Manila Rain 28 1005 85 0 8 41 02.08.2018 14:21
73 ma Marrakesch Clouds 36 1014 26 8000 17 360 02.08.2018 14:23
74 mx Mexiko Stadt Clouds 24 1027 36 16093 9 66 02.08.2018 14:21
75 us Miami Rain 32 1015 55 16093 21 260 02.08.2018 14:23
76 uy Montevideo Clouds 9 1012 61 10000 18 270 02.08.2018 14:22
77 ca Montreal Clouds 28 1001 58 14484 31 270 02.08.2018 14:22
78 ru Moskau Clouds 17 1014 87 10000 14 10 02.08.2018 14:22
79 in Mumbai Haze 28 1005 94 3000 5 90 02.08.2018 14:22
80 de München Clear 18 1025 60 0 9 69 02.08.2018 14:21
81 jp Nagasaki Rain 23 1008 88 0 19 150 02.08.2018 14:21
82 in Nagpur Rain 25 1005 100 2000 5 210 02.08.2018 14:21
83 ke Nairobi Clouds 19 1021 56 10000 10 84 02.08.2018 14:22
84 bs Nassau Clouds 30 1016 70 10000 17 230 02.08.2018 14:22
85 us New York Clear 32 1006 43 16093 21 260 02.08.2018 14:22
86 fr Nizza Clouds 26 1017 54 10000 9 250 02.08.2018 14:22
87 us Nome Clear 16 1007 77 16093 15 210 02.08.2018 14:23
88 de Nürnberg Clear 19 1025 45 10000 9 30 02.08.2018 14:21
89 gl Nuuk Clouds 11 1004 66 0 8 210 02.08.2018 14:22
90 de Oberstdorf Clear 16 1023 59 0 3 51 02.08.2018 14:21
91 no Oslo Clear 17 993 60 0 2 225 02.08.2018 14:23
92 it Palermo Clear 27 1015 69 10000 24 50 02.08.2018 14:22
93 es Palma de Mallorca Clear 27 1020 54 10000 13 120 02.08.2018 14:22
94 fr Paris Clouds 23 1024 38 10000 15 20 02.08.2018 14:22
95 cn Peking Clouds 25 1001 92 0 3 133 02.08.2018 14:23
96 au Perth Clouds 13 1014 71 10000 8 30 02.08.2018 14:21
97 pg Port Moresby Clouds 24 1010 92 0 10 119 02.08.2018 14:21
98 bo Potisi Clear 13 1013 22 0 7 53 02.08.2018 14:22
99 is Reykjavik Rain 11 1008 87 10000 17 310 02.08.2018 14:22
100 sa Riad Clouds 37 1002 13 10000 15 50 02.08.2018 14:21
101 br Rio de Janeiro Clouds 31 1012 42 10000 13 320 02.08.2018 14:22
102 it Rom Clear 27 1016 78 10000 8 240 02.08.2018 14:23
103 fi Rovaniemi Rain 14 1014 67 10000 9 110 02.08.2018 14:21
104 ec San Cristobal Clouds 20 1013 84 0 14 169 02.08.2018 14:22
105 cl Santiago Haze 17 1020 59 4000 4 250 02.08.2018 14:23
106 do Santo Domingo Clouds 32 1015 55 10000 18 100 02.08.2018 14:21
107 kr Seoul Mist 19 1004 93 9000 22 97 02.08.2018 14:21
108 es Sevilla Clear 32 1012 38 10000 18 230 02.08.2018 14:22
109 cn Shanghai Rain 30 1002 74 10000 11 240 02.08.2018 14:21
110 bg Sofia Clouds 17 1019 72 10000 31 280 02.08.2018 14:21
111 se Stockholm Clouds 12 1016 93 10000 4 160 02.08.2018 14:23
112 de Stuttgart Clear 19 1024 48 10000 11 80 02.08.2018 14:22
113 ru Surgut Clouds 13 1010 100 10000 11 221 02.08.2018 14:23
114 fj Suva Clouds 24 1016 83 10000 13 120 02.08.2018 14:21
115 au Sydney Mist 9 1017 93 10000 11 290 02.08.2018 14:22
116 es Tarifa Clouds 25 1014 88 10000 17 90 02.08.2018 14:21
117 jp Tokio Clouds 20 1009 88 10000 18 50 02.08.2018 14:22
118 de Torfhaus Clear 16 1023 58 0 4 11 02.08.2018 14:22
119 de Trier Clear 19 1025 39 10000 11 40 02.08.2018 14:21
120 us Tucson Clear 41 1015 18 16093 6 240 02.08.2018 14:21
121 mn Ulaanbaatar Clouds 13 1012 87 10000 6 38 02.08.2018 14:23
122 mn Uliastai Rain 15 1006 62 0 4 82 02.08.2018 14:23
123 ar Ushuaia Clouds 2 1002 94 10000 26 250 02.08.2018 14:22
124 mx Veracruz Clouds 32 1014 66 11265 11 110 02.08.2018 14:21
125 bg Warna Clear 21 1012 64 10000 8 350 02.08.2018 14:21
126 nz Wellington Rain 8 1022 87 10000 31 160 02.08.2018 14:23
127 ru Werchojansk Clear 21 1005 75 0 5 188 02.08.2018 14:22
128 at Wien Clear 17 1025 55 10000 5 350 02.08.2018 14:22